createdAt,value
2024-02-28T00:00:59.781Z,15.10
2024-02-28T00:03:40.104Z,15.70
2024-02-28T00:06:26.706Z,15.20
2024-02-28T00:09:13.712Z,15.48
2024-02-28T00:12:01.685Z,15.50
2024-02-28T00:14:48.729Z,14.65
2024-02-28T00:17:28.944Z,16.33
2024-02-28T00:20:16.636Z,15.93
2024-02-28T00:22:56.743Z,14.15
2024-02-28T00:25:43.752Z,14.40
2024-02-28T00:28:30.707Z,14.07
2024-02-28T00:31:10.592Z,13.45
2024-02-28T00:33:57.707Z,14.60
2024-02-28T00:36:48.154Z,15.77
2024-02-28T00:39:42.651Z,15.35
2024-02-28T00:42:29.625Z,15.90
2024-02-28T00:45:17.608Z,15.77
2024-02-28T00:47:57.955Z,14.90
2024-02-28T00:50:44.596Z,15.30
2024-02-28T00:53:25.766Z,14.35
2024-02-28T00:56:12.641Z,15.77
2024-02-28T00:58:52.636Z,15.48
2024-02-28T01:01:39.741Z,14.23
2024-02-28T01:04:19.694Z,15.20
2024-02-28T01:07:06.648Z,15.15
2024-02-28T01:09:46.723Z,14.30
2024-02-28T01:12:33.625Z,14.13
2024-02-28T01:15:14.407Z,13.60
2024-02-28T01:18:01.623Z,15.45
2024-02-28T01:20:41.673Z,14.52
2024-02-28T01:23:28.952Z,13.95
2024-02-28T01:26:08.642Z,14.30
2024-02-28T01:28:56.562Z,13.77
2024-02-28T01:31:36.760Z,14.20
2024-02-28T01:34:23.616Z,14.60
2024-02-28T01:37:03.737Z,14.50
2024-02-28T01:39:50.621Z,14.80
2024-02-28T01:42:31.895Z,14.45
2024-02-28T01:45:22.544Z,13.98
2024-02-28T01:48:09.533Z,15.52
2024-02-28T01:50:56.495Z,15.50
2024-02-28T01:53:36.611Z,15.65
2024-02-28T01:56:24.525Z,15.57
2024-02-28T01:59:05.587Z,17.13
2024-02-28T02:01:52.547Z,14.80
2024-02-28T02:04:32.593Z,14.63
2024-02-28T02:07:19.526Z,14.40
2024-02-28T02:10:06.492Z,15.32
2024-02-28T02:12:46.868Z,14.32
2024-02-28T02:15:33.530Z,14.80
2024-02-28T02:18:13.994Z,14.32
2024-02-28T02:21:06.522Z,15.18
2024-02-28T02:23:47.029Z,15.50
2024-02-28T02:26:33.441Z,14.88
2024-02-28T02:29:14.485Z,14.85
2024-02-28T02:32:01.441Z,15.02
2024-02-28T02:34:48.542Z,14.30
2024-02-28T02:37:28.532Z,15.55
2024-02-28T02:40:16.452Z,16.50
2024-02-28T02:43:03.423Z,15.77
2024-02-28T02:45:50.602Z,15.85
2024-02-28T02:48:30.461Z,14.95
2024-02-28T02:51:18.903Z,15.38
2024-02-28T02:53:58.435Z,15.75
2024-02-28T02:56:56.396Z,15.40
2024-02-28T02:59:37.526Z,15.82
2024-02-28T03:02:24.420Z,16.02
2024-02-28T03:05:12.431Z,15.40
2024-02-28T03:07:59.444Z,14.73
2024-02-28T03:10:47.395Z,14.40
2024-02-28T03:13:27.554Z,15.55
2024-02-28T03:16:14.547Z,15.63
2024-02-28T03:18:54.953Z,16.52
2024-02-28T03:21:41.453Z,16.35
2024-02-28T03:24:21.528Z,15.52
2024-02-28T03:27:08.388Z,15.40
2024-02-28T03:29:48.904Z,17.10
2024-02-28T03:32:35.431Z,16.67
2024-02-28T03:35:15.415Z,15.93
2024-02-28T03:38:02.370Z,16.58
2024-02-28T03:40:42.460Z,16.50
2024-02-28T03:43:29.378Z,17.75
2024-02-28T03:46:17.389Z,15.38
2024-02-28T04:03:23.931Z,14.77
2024-02-28T04:06:10.998Z,13.35
2024-02-28T04:08:50.897Z,14.18
2024-02-28T04:11:31.246Z,14.80
2024-02-28T04:14:17.905Z,14.27
2024-02-28T04:17:04.924Z,13.77
2024-02-28T04:19:44.855Z,14.75
2024-02-28T04:22:25.270Z,13.48
2024-02-28T04:25:12.861Z,14.15
2024-02-28T04:27:59.949Z,15.02
2024-02-28T04:30:39.925Z,15.98
2024-02-28T04:33:27.016Z,15.43
2024-02-28T04:36:06.820Z,15.52
2024-02-28T04:38:47.164Z,15.63
2024-02-28T04:41:33.860Z,14.57
2024-02-28T04:44:20.867Z,16.20
2024-02-28T04:47:00.894Z,14.23
2024-02-28T04:49:47.782Z,13.38
2024-02-28T04:52:34.850Z,15.20
2024-02-28T04:55:15.342Z,14.57
2024-02-28T04:58:01.865Z,13.82
2024-02-28T05:00:42.275Z,16.80
2024-02-28T05:03:29.962Z,15.30
2024-02-28T05:06:16.897Z,15.45
2024-02-28T05:08:56.904Z,16.73
2024-02-28T05:11:43.837Z,16.17
2024-02-28T05:14:24.037Z,15.43
2024-02-28T05:17:10.833Z,16.55
2024-02-28T05:19:50.881Z,17.17
2024-02-28T05:22:37.794Z,15.88
2024-02-28T05:25:24.833Z,16.58
2024-02-28T05:28:05.620Z,15.73
2024-02-28T05:30:52.834Z,15.90
2024-02-28T05:33:33.111Z,14.95
2024-02-28T05:36:19.764Z,15.52
2024-02-28T05:39:08.746Z,15.88
2024-02-28T05:41:48.885Z,18.08
2024-02-28T05:44:35.753Z,15.65
2024-02-28T05:47:15.926Z,16.75
2024-02-28T05:50:03.780Z,15.63
2024-02-28T05:52:44.056Z,15.80
2024-02-28T05:55:31.736Z,17.25
2024-02-28T05:58:18.783Z,19.20
2024-02-28T06:01:12.843Z,17.70
2024-02-28T06:03:59.826Z,16.97
2024-02-28T06:06:46.745Z,17.83
2024-02-28T06:09:36.791Z,18.52
2024-02-28T06:12:23.720Z,17.33
2024-02-28T06:15:05.873Z,17.38
2024-02-28T06:17:52.771Z,17.52
2024-02-28T06:20:46.670Z,16.75
2024-02-28T06:23:29.076Z,17.17
2024-02-28T06:26:22.675Z,17.15
2024-02-28T06:29:05.514Z,17.90
2024-02-28T06:31:52.651Z,18.38
2024-02-28T06:34:33.259Z,17.50
2024-02-28T06:37:19.682Z,17.13
2024-02-28T06:40:00.087Z,17.48
2024-02-28T06:42:46.725Z,16.73
2024-02-28T06:45:27.273Z,17.42
2024-02-28T06:48:13.773Z,18.10
2024-02-28T06:50:54.028Z,17.67
2024-02-28T06:53:40.623Z,16.52
2024-02-28T06:56:21.005Z,17.70
2024-02-28T06:59:07.662Z,17.30
2024-02-28T07:02:01.724Z,17.23
2024-02-28T07:04:43.291Z,18.30
2024-02-28T07:07:29.648Z,17.50
2024-02-28T07:10:16.740Z,18.70
2024-02-28T07:12:56.730Z,17.02
2024-02-28T07:15:37.139Z,16.45
2024-02-28T07:18:23.689Z,16.15
2024-02-28T07:21:04.288Z,16.33
2024-02-28T07:23:54.646Z,16.08
2024-02-28T07:26:34.918Z,16.00
2024-02-28T07:29:21.632Z,16.40
2024-02-28T07:32:08.728Z,17.38
2024-02-28T07:34:48.652Z,16.98
2024-02-28T07:37:28.966Z,17.10
2024-02-28T07:40:15.573Z,16.90
2024-02-28T07:42:55.936Z,16.10
2024-02-28T07:45:42.686Z,17.25
2024-02-28T07:48:36.655Z,17.25
2024-02-28T07:51:25.687Z,17.00
2024-02-28T07:54:05.583Z,17.77
2024-02-28T07:56:52.700Z,18.83
2024-02-28T07:59:32.617Z,18.27
2024-02-28T08:02:14.204Z,18.77
2024-02-28T08:05:01.518Z,18.55
2024-02-28T08:07:43.059Z,18.27
2024-02-28T08:10:29.599Z,17.73
2024-02-28T08:13:10.024Z,17.95
2024-02-28T08:15:56.571Z,17.65
2024-02-28T08:18:43.712Z,17.90
2024-02-28T08:21:23.580Z,16.98
2024-02-28T08:24:06.059Z,17.80
2024-02-28T08:26:52.576Z,18.45
2024-02-28T08:29:33.948Z,18.13
2024-02-28T08:32:20.546Z,18.40
2024-02-28T08:35:08.545Z,17.75
2024-02-28T08:37:48.583Z,18.55
2024-02-28T08:40:35.581Z,18.90
2024-02-28T08:43:15.596Z,18.10
2024-02-28T08:46:02.644Z,17.90
2024-02-28T08:48:42.681Z,19.33
2024-02-28T08:51:29.490Z,20.52
2024-02-28T08:54:10.002Z,18.80
2024-02-28T08:57:00.326Z,19.38
2024-02-28T08:59:43.589Z,17.98
2024-02-28T09:02:30.528Z,18.00
2024-02-28T09:05:11.742Z,19.10
2024-02-28T09:08:00.498Z,18.50
2024-02-28T09:10:47.483Z,18.38
2024-02-28T09:13:35.576Z,18.60
2024-02-28T09:16:15.695Z,19.02
2024-02-28T09:19:02.552Z,19.02
2024-02-28T09:21:42.569Z,20.15
2024-02-28T09:24:29.470Z,19.45
2024-02-28T09:27:16.574Z,19.77
2024-02-28T09:29:56.839Z,19.67
2024-02-28T09:32:43.444Z,19.58
2024-02-28T09:35:23.902Z,19.33
2024-02-28T09:38:10.518Z,18.45
2024-02-28T09:40:57.458Z,19.25
2024-02-28T09:43:39.504Z,19.58
2024-02-28T09:46:26.465Z,19.20
2024-02-28T09:49:10.634Z,18.65
2024-02-28T09:51:58.537Z,19.33
2024-02-28T09:54:45.531Z,18.85
2024-02-28T09:57:29.899Z,19.02
2024-02-28T10:00:17.450Z,19.02
2024-02-28T10:03:05.437Z,19.77
2024-02-28T10:05:46.214Z,19.27
2024-02-28T10:08:33.470Z,19.10
2024-02-28T10:11:20.491Z,20.50
2024-02-28T10:14:07.671Z,18.63
2024-02-28T10:16:50.438Z,18.88
2024-02-28T10:19:30.879Z,20.42
2024-02-28T10:22:17.438Z,19.63
2024-02-28T10:25:00.268Z,19.23
2024-02-28T10:27:48.393Z,20.23
2024-02-28T10:30:29.315Z,19.88
2024-02-28T10:33:16.424Z,19.33
2024-02-28T10:36:03.392Z,20.27
2024-02-28T10:38:50.480Z,19.42
2024-02-28T10:41:38.394Z,18.88
2024-02-28T10:44:20.525Z,19.73
2024-02-28T10:47:12.888Z,20.17
2024-02-28T10:49:53.809Z,20.35
2024-02-28T10:52:41.384Z,20.17
2024-02-28T10:55:21.517Z,19.73
2024-02-28T10:58:18.391Z,19.50
2024-02-28T11:01:05.497Z,20.08
2024-02-28T11:04:00.406Z,20.40
2024-02-28T11:07:03.422Z,20.38
2024-02-28T11:09:43.507Z,22.38
2024-02-28T11:12:37.405Z,19.98
2024-02-28T11:15:31.419Z,20.37
2024-02-28T11:18:18.412Z,20.90
2024-02-28T11:20:58.389Z,19.73
2024-02-28T11:23:45.347Z,18.27
2024-02-28T11:26:25.729Z,18.50
2024-02-28T11:29:19.344Z,18.30
2024-02-28T11:32:00.001Z,18.37
2024-02-28T11:34:48.310Z,18.50
2024-02-28T11:37:36.342Z,19.10
2024-02-28T11:40:16.473Z,19.10
2024-02-28T11:43:04.357Z,19.33
2024-02-28T11:45:50.279Z,18.55
2024-02-28T11:48:37.369Z,17.23
2024-02-28T11:51:17.462Z,18.52
2024-02-28T11:54:04.290Z,16.90
2024-02-28T11:56:57.607Z,16.95
2024-02-28T11:59:38.619Z,17.63
2024-02-28T12:02:31.312Z,18.58
2024-02-28T12:05:11.624Z,16.27
2024-02-28T12:07:58.288Z,17.10
2024-02-28T12:10:45.327Z,18.38
2024-02-28T12:13:26.351Z,16.92
2024-02-28T12:16:13.379Z,17.92
2024-02-28T12:19:02.375Z,17.33
2024-02-28T12:21:43.413Z,17.77
2024-02-28T12:24:30.328Z,18.50
2024-02-28T12:27:10.663Z,17.08
2024-02-28T12:30:04.283Z,17.73
2024-02-28T12:32:51.349Z,17.13
2024-02-28T12:35:31.291Z,15.30
2024-02-28T12:38:18.468Z,17.00
2024-02-28T12:40:58.278Z,17.38
2024-02-28T12:43:46.315Z,17.52
2024-02-28T12:46:26.316Z,18.70
2024-02-28T12:49:13.374Z,18.70
2024-02-28T12:51:54.265Z,17.20
2024-02-28T12:54:34.636Z,16.95
2024-02-28T12:57:24.250Z,17.27
2024-02-28T13:00:05.167Z,17.80
2024-02-28T13:02:52.162Z,16.38
2024-02-28T13:05:40.281Z,16.63
2024-02-28T13:08:21.258Z,16.40
2024-02-28T13:11:09.198Z,17.10
2024-02-28T13:13:56.250Z,17.45
2024-02-28T13:16:36.718Z,16.35
2024-02-28T13:19:23.188Z,16.92
2024-02-28T13:22:10.359Z,16.38
2024-02-28T13:24:50.269Z,15.95
2024-02-28T13:27:30.672Z,17.15
2024-02-28T13:30:18.164Z,16.38
2024-02-28T13:32:58.754Z,14.98
2024-02-28T13:35:46.220Z,15.98
2024-02-28T13:38:33.689Z,14.50
2024-02-28T13:41:14.149Z,14.55
2024-02-28T13:43:54.561Z,15.00
2024-02-28T13:46:41.155Z,14.90
2024-02-28T13:49:21.838Z,17.00
2024-02-28T13:52:08.296Z,14.98
2024-02-28T13:54:55.192Z,13.90
2024-02-28T13:57:35.436Z,15.25
2024-02-28T14:00:23.215Z,14.38
2024-02-28T14:03:18.116Z,16.98
2024-02-28T14:08:45.259Z,14.50
2024-02-28T14:11:32.097Z,13.68
2024-02-28T14:14:13.079Z,14.73
2024-02-28T14:17:00.103Z,15.52
2024-02-28T14:19:40.191Z,15.23
2024-02-28T14:22:27.125Z,12.90
2024-02-28T14:25:07.364Z,15.77
2024-02-28T14:27:55.138Z,15.15
2024-02-28T14:30:35.240Z,15.75
2024-02-28T14:33:22.274Z,16.13
2024-02-28T14:36:02.279Z,15.95
2024-02-28T14:38:49.129Z,15.82
2024-02-28T14:41:29.186Z,16.63
2024-02-28T14:44:16.120Z,15.57
2024-02-28T14:47:15.626Z,15.10
2024-02-28T14:50:02.076Z,14.75
2024-02-28T14:52:42.169Z,14.48
2024-02-28T14:55:29.109Z,16.30
2024-02-28T14:58:16.189Z,17.27
2024-02-28T15:00:59.759Z,16.65
2024-02-28T15:03:48.120Z,14.48
2024-02-28T15:06:35.093Z,16.45
2024-02-28T15:09:22.074Z,14.10
2024-02-28T15:12:02.537Z,14.77
2024-02-28T15:14:49.052Z,14.23
2024-02-28T15:17:30.076Z,14.38
2024-02-28T15:20:17.015Z,15.13
2024-02-28T15:22:57.452Z,15.07
2024-02-28T15:25:44.055Z,16.05
2024-02-28T15:28:30.992Z,13.68
2024-02-28T15:31:11.159Z,13.60
2024-02-28T15:33:58.069Z,17.27
2024-02-28T15:36:38.788Z,17.70
2024-02-28T15:39:26.031Z,17.10
2024-02-28T15:42:13.013Z,15.52
2024-02-28T15:44:59.986Z,17.00
2024-02-28T15:47:41.812Z,14.60
2024-02-28T15:50:29.034Z,16.00
2024-02-28T16:05:47.339Z,14.73
2024-02-28T16:08:34.325Z,15.52
2024-02-28T16:11:24.364Z,14.93
2024-02-28T16:14:19.365Z,14.57
2024-02-28T16:19:47.525Z,13.43
2024-02-28T16:22:34.357Z,13.25
2024-02-28T16:25:21.351Z,14.65
2024-02-28T16:28:08.479Z,13.45
2024-02-28T16:30:54.378Z,14.95
2024-02-28T16:33:48.319Z,19.83
2024-02-28T16:36:35.389Z,16.98
2024-02-28T16:39:15.952Z,13.95
2024-02-28T16:42:02.299Z,14.65
2024-02-28T16:44:44.026Z,14.30
2024-02-28T16:47:31.299Z,14.13
2024-02-28T16:50:18.291Z,14.02
2024-02-28T16:53:05.298Z,15.30
2024-02-28T16:55:52.235Z,11.75
2024-02-28T16:58:34.827Z,14.77
2024-02-28T17:01:21.322Z,15.63
2024-02-28T17:04:08.392Z,15.52
2024-02-28T17:06:50.698Z,15.68
2024-02-28T17:09:37.297Z,14.30
2024-02-28T17:12:17.301Z,14.82
2024-02-28T17:15:04.285Z,16.60
2024-02-28T17:17:44.598Z,16.17
2024-02-28T17:20:33.278Z,14.07
2024-02-28T17:23:13.682Z,17.02
2024-02-28T17:26:04.239Z,13.73
2024-02-28T17:28:44.451Z,14.68
2024-02-28T17:31:31.225Z,14.07
2024-02-28T17:34:14.956Z,12.80
2024-02-28T17:37:02.338Z,12.85
2024-02-28T17:39:42.379Z,15.23
2024-02-28T17:42:29.215Z,16.35
2024-02-28T17:45:12.523Z,16.85
2024-02-28T17:47:59.205Z,15.70
2024-02-28T17:50:39.674Z,17.40
2024-02-28T17:53:26.171Z,16.58
2024-02-28T17:56:14.235Z,18.98
2024-02-28T17:58:54.512Z,12.95
2024-02-28T18:01:42.268Z,14.73
2024-02-28T18:04:36.132Z,12.93
2024-02-28T18:07:24.134Z,13.50
2024-02-28T18:10:14.369Z,15.05
2024-02-28T18:13:02.292Z,14.35
2024-02-28T18:15:49.158Z,12.98
2024-02-28T18:18:31.382Z,13.48
2024-02-28T18:21:18.109Z,17.42
2024-02-28T18:24:05.160Z,15.32
2024-02-28T18:26:45.426Z,19.55
2024-02-28T18:29:32.173Z,15.95
2024-02-28T18:32:12.205Z,15.88
2024-02-28T18:34:59.659Z,14.98
2024-02-28T18:37:48.188Z,15.70
2024-02-28T18:40:35.112Z,14.38
2024-02-28T18:43:18.273Z,15.85
2024-02-28T18:46:05.216Z,16.27
2024-02-28T18:48:45.621Z,17.63
2024-02-28T18:51:35.164Z,15.35
2024-02-28T18:54:15.270Z,16.70
2024-02-28T18:57:02.157Z,21.10
2024-02-28T18:59:42.198Z,16.88
2024-02-28T19:02:29.139Z,15.02
2024-02-28T19:05:16.215Z,14.60
2024-02-28T19:07:59.112Z,14.50
2024-02-28T19:10:40.708Z,15.05
2024-02-28T19:13:27.141Z,14.80
2024-02-28T19:16:14.183Z,16.48
2024-02-28T19:19:01.086Z,16.77
2024-02-28T19:21:48.098Z,16.27
2024-02-28T19:24:28.221Z,17.50
2024-02-28T19:27:15.306Z,20.98
2024-02-28T19:29:55.244Z,18.05
2024-02-28T19:32:43.124Z,15.70
2024-02-28T19:35:30.077Z,14.23
2024-02-28T19:38:17.293Z,13.68
2024-02-28T19:40:57.142Z,15.52
2024-02-28T19:43:37.775Z,13.15
2024-02-28T19:46:25.047Z,15.90
2024-02-28T19:49:12.086Z,15.93
2024-02-28T19:51:52.173Z,20.00
2024-02-28T19:54:41.060Z,18.27
2024-02-28T19:57:28.000Z,18.15
2024-02-28T20:00:15.020Z,18.10
2024-02-28T20:03:02.045Z,19.23
2024-02-28T20:05:49.108Z,21.95
2024-02-28T20:08:28.985Z,30.70
2024-02-28T20:11:09.532Z,27.40
2024-02-28T20:13:56.025Z,18.38
2024-02-28T20:16:40.755Z,21.45
2024-02-28T20:19:28.005Z,19.55
2024-02-28T20:22:08.793Z,18.30
2024-02-28T20:24:56.016Z,17.83
2024-02-28T20:27:42.983Z,18.33
2024-02-28T20:30:23.046Z,17.88
2024-02-28T20:33:11.027Z,19.30
2024-02-28T20:35:51.098Z,19.55
2024-02-28T20:38:37.949Z,22.88
2024-02-28T20:41:26.014Z,23.17
2024-02-28T20:44:10.649Z,20.48
2024-02-28T20:46:58.016Z,19.30
2024-02-28T20:49:38.360Z,20.27
2024-02-28T20:52:24.989Z,30.80
2024-02-28T20:55:05.654Z,24.40
2024-02-28T20:57:52.971Z,21.73
2024-02-28T21:00:33.322Z,20.48
2024-02-28T21:03:19.941Z,21.65
2024-02-28T21:06:07.354Z,23.15
2024-02-28T21:08:47.925Z,20.63
2024-02-28T21:11:28.818Z,17.88
2024-02-28T21:14:15.908Z,19.17
2024-02-28T21:16:57.772Z,22.02
2024-02-28T21:19:45.852Z,21.52
2024-02-28T21:22:26.261Z,24.02
2024-02-28T21:25:12.915Z,23.17
2024-02-28T21:27:59.969Z,23.25
2024-02-28T21:30:39.951Z,23.35
2024-02-28T21:33:21.042Z,50.72
2024-02-28T21:36:07.889Z,24.92
2024-02-28T21:38:48.234Z,17.67
2024-02-28T21:41:34.914Z,19.85
2024-02-28T21:44:15.203Z,16.88
2024-02-28T21:47:01.852Z,18.67
2024-02-28T21:49:42.896Z,17.58
2024-02-28T21:52:30.813Z,23.30
2024-02-28T21:55:11.856Z,20.98
2024-02-28T21:57:58.826Z,19.85
2024-02-28T22:00:45.891Z,26.55
2024-02-28T22:03:25.923Z,27.08
2024-02-28T22:06:12.825Z,19.83
2024-02-28T22:09:03.805Z,26.60
2024-02-28T22:11:44.135Z,52.85
2024-02-28T22:14:30.807Z,57.92
2024-02-28T22:17:11.141Z,34.20
2024-02-28T22:19:57.808Z,21.35
2024-02-28T22:22:44.822Z,19.42
2024-02-28T22:25:24.928Z,18.00
2024-02-28T22:28:11.978Z,18.80
2024-02-28T22:30:51.999Z,26.02
2024-02-28T22:33:38.848Z,20.38
2024-02-28T22:36:19.831Z,22.75
2024-02-28T22:39:06.768Z,21.40
2024-02-28T22:41:46.861Z,21.30
2024-02-28T22:44:33.781Z,17.48
2024-02-28T22:47:13.892Z,18.13
2024-02-28T22:50:00.798Z,21.38
2024-02-28T22:52:41.832Z,19.33
2024-02-28T22:55:28.784Z,19.85
2024-02-28T22:58:15.775Z,25.05
2024-02-28T23:00:56.440Z,33.70
2024-02-28T23:03:43.789Z,58.55
2024-02-28T23:06:30.978Z,48.17
2024-02-28T23:09:12.757Z,68.93
2024-02-28T23:11:53.288Z,27.13
2024-02-28T23:14:40.668Z,19.77
2024-02-28T23:17:21.488Z,36.38
2024-02-28T23:20:08.721Z,82.43
2024-02-28T23:22:49.065Z,59.30
2024-02-28T23:25:36.775Z,36.60
2024-02-28T23:28:23.847Z,30.25
2024-02-28T23:31:03.835Z,63.63
2024-02-28T23:33:44.086Z,59.90
2024-02-28T23:36:30.791Z,76.00
2024-02-28T23:39:11.067Z,71.78
2024-02-28T23:42:00.690Z,41.10
2024-02-28T23:44:41.096Z,33.08
2024-02-28T23:47:27.737Z,21.98
2024-02-28T23:50:08.531Z,28.00
2024-02-28T23:52:55.750Z,19.23
2024-02-28T23:55:43.266Z,35.72
2024-02-28T23:58:22.726Z,35.78
